Portada
METAR-TAF:

METAR-TAF

Aeropuertos :

San Francisco, California, Estados Unidos

Aeropuerto Internacional de San Francisco

latitud: 37-37-11N, longitud: 122-21-53W, altitud: 3 m

Observación

El informe se hizo hace 24 minutos, a las 08:56 UTC
Viento calma
Temperatura 22°C
Humedad 50%
Presión 1020 hPa
Visibilidad: 16.1 km
Escasas nubes a una altura de 20000 ft

METAR: KSFO 240856Z 00000KT 10SM FEW200 22/11 A3013 RMK AO2 SLP203 T02170106 58004

Hora: 02:20 (09:20 UTC)

Pronóstico

El informe se hizo hace 23 minutos, a las 08:57 UTC
Pronóstico válido del 24 a las 09 UTC al 25 a las 12 UTC
Viento 4 kt del este
Visibilidad: 10 km
Cielo despejado
A partir de las 24 a las 2200 UTC
Viento 7 kt del oeste-noroeste
Visibilidad: 10 km
Cielo despejado
A partir de las 25 a las 0300 UTC
Viento 3 kt con dirección variable
Visibilidad: 10 km
Cielo despejado

TAF: KSFO 240857Z 2409/2512 08004KT P6SM SKC FM242200 30007KT P6SM SKC FM250300 VRB03KT P6SM SKC

Observaciones y pronósticos meteorológicos de más de 4000 aeropuertos (mensajes METAR y TAF).

Los puntos amarillos y rojos representan las estaciones disponibles.

Ponga el ratón en el punto deseado para ver el nombre de la estación.

Haga clic para ver las observaciones y los pronósticos meteorológicos.

Para cambiar el mapa : haga clic en los botones verdes con una cruz de color negro para hacer un zoom, en el botón verde con un guión para alejar o en las flechas verdes para mapas adyacentes.


METAR-TAF: